sensor_id;sensor_type;location;lat;lon;timestamp;P1;durP1;ratioP1;P2;durP2;ratioP2
28296;SDS011;62078;49.366;8.172;2023-01-10T00:01:35;5.68;;;1.73;;
28296;SDS011;62078;49.366;8.172;2023-01-10T00:04:01;3.72;;;1.30;;
28296;SDS011;62078;49.366;8.172;2023-01-10T00:06:27;2.00;;;0.90;;
28296;SDS011;62078;49.366;8.172;2023-01-10T00:08:53;4.95;;;1.35;;
28296;SDS011;62078;49.366;8.172;2023-01-10T00:11:18;3.97;;;1.33;;
28296;SDS011;62078;49.366;8.172;2023-01-10T00:14:03;2.67;;;1.30;;
28296;SDS011;62078;49.366;8.172;2023-01-10T00:16:28;3.28;;;1.38;;
28296;SDS011;62078;49.366;8.172;2023-01-10T00:18:54;2.85;;;1.20;;
28296;SDS011;62078;49.366;8.172;2023-01-10T00:21:20;2.58;;;1.23;;
28296;SDS011;62078;49.366;8.172;2023-01-10T00:23:46;3.38;;;1.20;;
28296;SDS011;62078;49.366;8.172;2023-01-10T00:26:13;5.40;;;1.42;;
28296;SDS011;62078;49.366;8.172;2023-01-10T00:28:38;3.50;;;1.50;;
28296;SDS011;62078;49.366;8.172;2023-01-10T00:31:05;2.97;;;1.30;;
28296;SDS011;62078;49.366;8.172;2023-01-10T00:33:31;6.07;;;1.20;;
28296;SDS011;62078;49.366;8.172;2023-01-10T00:35:58;2.75;;;1.10;;
28296;SDS011;62078;49.366;8.172;2023-01-10T00:38:25;2.22;;;1.15;;
28296;SDS011;62078;49.366;8.172;2023-01-10T00:40:51;2.72;;;1.23;;
28296;SDS011;62078;49.366;8.172;2023-01-10T00:43:17;4.47;;;1.50;;
28296;SDS011;62078;49.366;8.172;2023-01-10T00:46:01;5.03;;;1.20;;
28296;SDS011;62078;49.366;8.172;2023-01-10T00:48:27;3.72;;;1.38;;
28296;SDS011;62078;49.366;8.172;2023-01-10T00:50:53;2.63;;;1.25;;
28296;SDS011;62078;49.366;8.172;2023-01-10T00:53:19;3.47;;;1.23;;
28296;SDS011;62078;49.366;8.172;2023-01-10T00:55:45;4.60;;;1.75;;
28296;SDS011;62078;49.366;8.172;2023-01-10T00:58:14;6.18;;;1.58;;
28296;SDS011;62078;49.366;8.172;2023-01-10T01:00:41;2.97;;;0.90;;
28296;SDS011;62078;49.366;8.172;2023-01-10T01:03:10;4.30;;;1.30;;
28296;SDS011;62078;49.366;8.172;2023-01-10T01:05:40;4.10;;;1.05;;
28296;SDS011;62078;49.366;8.172;2023-01-10T01:08:08;2.67;;;1.10;;
28296;SDS011;62078;49.366;8.172;2023-01-10T01:10:35;2.78;;;1.30;;
28296;SDS011;62078;49.366;8.172;2023-01-10T01:13:15;2.78;;;1.20;;
28296;SDS011;62078;49.366;8.172;2023-01-10T01:15:42;1.55;;;0.80;;
28296;SDS011;62078;49.366;8.172;2023-01-10T01:18:08;4.75;;;1.30;;
28296;SDS011;62078;49.366;8.172;2023-01-10T01:20:39;4.75;;;1.10;;
28296;SDS011;62078;49.366;8.172;2023-01-10T01:23:06;2.08;;;1.02;;
28296;SDS011;62078;49.366;8.172;2023-01-10T01:25:32;2.78;;;1.27;;
28296;SDS011;62078;49.366;8.172;2023-01-10T01:27:57;3.88;;;1.00;;
28296;SDS011;62078;49.366;8.172;2023-01-10T01:30:23;3.78;;;1.30;;
28296;SDS011;62078;49.366;8.172;2023-01-10T01:32:49;2.20;;;1.00;;
28296;SDS011;62078;49.366;8.172;2023-01-10T01:35:14;2.83;;;1.20;;
28296;SDS011;62078;49.366;8.172;2023-01-10T01:37:40;3.00;;;1.35;;
28296;SDS011;62078;49.366;8.172;2023-01-10T01:40:09;2.72;;;0.80;;
28296;SDS011;62078;49.366;8.172;2023-01-10T01:42:38;5.35;;;1.10;;
28296;SDS011;62078;49.366;8.172;2023-01-10T01:47:34;2.35;;;0.90;;
28296;SDS011;62078;49.366;8.172;2023-01-10T01:52:44;2.42;;;1.00;;
28296;SDS011;62078;49.366;8.172;2023-01-10T01:55:11;2.53;;;1.00;;
28296;SDS011;62078;49.366;8.172;2023-01-10T01:57:37;3.53;;;0.90;;
28296;SDS011;62078;49.366;8.172;2023-01-10T02:00:03;4.00;;;1.02;;
28296;SDS011;62078;49.366;8.172;2023-01-10T02:02:31;2.05;;;0.70;;
28296;SDS011;62078;49.366;8.172;2023-01-10T02:05:03;2.92;;;0.90;;
28296;SDS011;62078;49.366;8.172;2023-01-10T02:07:33;2.08;;;1.02;;
28296;SDS011;62078;49.366;8.172;2023-01-10T02:10:23;2.30;;;0.90;;
28296;SDS011;62078;49.366;8.172;2023-01-10T02:12:55;3.15;;;0.80;;
28296;SDS011;62078;49.366;8.172;2023-01-10T02:15:25;3.38;;;1.10;;
28296;SDS011;62078;49.366;8.172;2023-01-10T02:17:51;2.53;;;1.10;;
28296;SDS011;62078;49.366;8.172;2023-01-10T02:20:17;2.58;;;0.90;;
28296;SDS011;62078;49.366;8.172;2023-01-10T02:23:04;2.25;;;1.00;;
28296;SDS011;62078;49.366;8.172;2023-01-10T02:25:53;6.38;;;0.90;;
28296;SDS011;62078;49.366;8.172;2023-01-10T02:34:24;2.22;;;0.90;;
28296;SDS011;62078;49.366;8.172;2023-01-10T02:40:07;2.45;;;0.85;;
28296;SDS011;62078;49.366;8.172;2023-01-10T02:45:20;3.03;;;0.98;;
28296;SDS011;62078;49.366;8.172;2023-01-10T02:47:54;2.90;;;1.13;;
28296;SDS011;62078;49.366;8.172;2023-01-10T02:50:35;3.28;;;0.98;;
28296;SDS011;62078;49.366;8.172;2023-01-10T02:53:08;2.03;;;0.80;;
28296;SDS011;62078;49.366;8.172;2023-01-10T02:58:22;3.33;;;1.05;;
28296;SDS011;62078;49.366;8.172;2023-01-10T03:01:24;13.32;;;0.95;;
28296;SDS011;62078;49.366;8.172;2023-01-10T03:03:59;2.72;;;0.73;;
28296;SDS011;62078;49.366;8.172;2023-01-10T03:09:54;2.05;;;0.95;;
28296;SDS011;62078;49.366;8.172;2023-01-10T03:15:37;2.90;;;0.90;;
28296;SDS011;62078;49.366;8.172;2023-01-10T03:18:05;3.28;;;0.90;;
28296;SDS011;62078;49.366;8.172;2023-01-10T03:20:37;2.60;;;1.00;;
28296;SDS011;62078;49.366;8.172;2023-01-10T03:23:05;2.45;;;0.90;;
28296;SDS011;62078;49.366;8.172;2023-01-10T03:25:32;3.40;;;1.00;;
28296;SDS011;62078;49.366;8.172;2023-01-10T03:30:44;2.03;;;0.80;;
28296;SDS011;62078;49.366;8.172;2023-01-10T03:33:17;3.27;;;0.90;;
28296;SDS011;62078;49.366;8.172;2023-01-10T03:35:59;2.40;;;0.98;;
28296;SDS011;62078;49.366;8.172;2023-01-10T03:41:24;3.47;;;0.70;;
28296;SDS011;62078;49.366;8.172;2023-01-10T03:44:03;2.60;;;0.93;;
28296;SDS011;62078;49.366;8.172;2023-01-10T03:47:14;3.25;;;0.93;;
28296;SDS011;62078;49.366;8.172;2023-01-10T03:50:02;4.57;;;1.00;;
28296;SDS011;62078;49.366;8.172;2023-01-10T03:52:32;5.75;;;1.38;;
28296;SDS011;62078;49.366;8.172;2023-01-10T03:54:59;3.92;;;1.10;;
28296;SDS011;62078;49.366;8.172;2023-01-10T03:57:26;4.60;;;0.80;;
28296;SDS011;62078;49.366;8.172;2023-01-10T03:59:55;4.30;;;1.00;;
28296;SDS011;62078;49.366;8.172;2023-01-10T04:02:23;8.40;;;1.60;;
28296;SDS011;62078;49.366;8.172;2023-01-10T04:04:53;5.28;;;1.10;;
28296;SDS011;62078;49.366;8.172;2023-01-10T04:07:19;3.38;;;1.17;;
28296;SDS011;62078;49.366;8.172;2023-01-10T04:09:45;1.88;;;0.80;;
28296;SDS011;62078;49.366;8.172;2023-01-10T04:12:11;4.10;;;0.95;;
28296;SDS011;62078;49.366;8.172;2023-01-10T04:14:36;4.45;;;0.70;;
28296;SDS011;62078;49.366;8.172;2023-01-10T04:17:02;2.88;;;1.15;;
28296;SDS011;62078;49.366;8.172;2023-01-10T04:19:28;5.32;;;1.35;;
28296;SDS011;62078;49.366;8.172;2023-01-10T04:21:53;9.43;;;1.13;;
28296;SDS011;62078;49.366;8.172;2023-01-10T04:24:19;3.90;;;0.90;;
28296;SDS011;62078;49.366;8.172;2023-01-10T04:26:45;4.97;;;1.35;;
28296;SDS011;62078;49.366;8.172;2023-01-10T04:29:10;7.35;;;0.85;;
28296;SDS011;62078;49.366;8.172;2023-01-10T04:31:36;7.25;;;1.23;;
28296;SDS011;62078;49.366;8.172;2023-01-10T04:34:04;9.13;;;1.58;;
28296;SDS011;62078;49.366;8.172;2023-01-10T04:36:30;9.75;;;1.50;;
28296;SDS011;62078;49.366;8.172;2023-01-10T04:38:56;15.90;;;1.73;;
28296;SDS011;62078;49.366;8.172;2023-01-10T04:41:22;8.48;;;1.90;;
28296;SDS011;62078;49.366;8.172;2023-01-10T04:43:48;10.30;;;1.85;;
28296;SDS011;62078;49.366;8.172;2023-01-10T04:46:14;9.57;;;1.15;;
28296;SDS011;62078;49.366;8.172;2023-01-10T04:48:40;6.03;;;1.45;;
28296;SDS011;62078;49.366;8.172;2023-01-10T04:51:06;5.00;;;1.52;;
28296;SDS011;62078;49.366;8.172;2023-01-10T04:53:31;6.50;;;1.30;;
28296;SDS011;62078;49.366;8.172;2023-01-10T04:56:01;6.72;;;1.42;;
28296;SDS011;62078;49.366;8.172;2023-01-10T04:58:28;4.80;;;1.35;;
28296;SDS011;62078;49.366;8.172;2023-01-10T05:00:54;7.65;;;1.20;;
28296;SDS011;62078;49.366;8.172;2023-01-10T05:03:19;4.78;;;1.25;;
28296;SDS011;62078;49.366;8.172;2023-01-10T05:05:45;6.20;;;1.67;;
28296;SDS011;62078;49.366;8.172;2023-01-10T05:08:10;5.30;;;1.45;;
28296;SDS011;62078;49.366;8.172;2023-01-10T05:10:36;6.22;;;1.50;;
28296;SDS011;62078;49.366;8.172;2023-01-10T05:13:02;3.78;;;1.40;;
28296;SDS011;62078;49.366;8.172;2023-01-10T05:15:27;5.95;;;1.40;;
28296;SDS011;62078;49.366;8.172;2023-01-10T05:17:57;3.90;;;1.40;;
28296;SDS011;62078;49.366;8.172;2023-01-10T05:20:23;4.28;;;1.20;;
28296;SDS011;62078;49.366;8.172;2023-01-10T05:22:49;5.43;;;1.70;;
28296;SDS011;62078;49.366;8.172;2023-01-10T05:25:14;5.07;;;1.40;;
28296;SDS011;62078;49.366;8.172;2023-01-10T05:27:41;5.57;;;1.50;;
28296;SDS011;62078;49.366;8.172;2023-01-10T05:30:10;12.02;;;1.95;;
28296;SDS011;62078;49.366;8.172;2023-01-10T05:32:37;12.48;;;2.42;;
28296;SDS011;62078;49.366;8.172;2023-01-10T05:35:03;14.95;;;2.47;;
28296;SDS011;62078;49.366;8.172;2023-01-10T05:37:29;8.52;;;2.10;;
28296;SDS011;62078;49.366;8.172;2023-01-10T05:39:55;12.10;;;2.20;;
28296;SDS011;62078;49.366;8.172;2023-01-10T05:42:20;12.18;;;2.70;;
28296;SDS011;62078;49.366;8.172;2023-01-10T05:44:46;17.25;;;2.72;;
28296;SDS011;62078;49.366;8.172;2023-01-10T05:47:11;15.82;;;2.50;;
28296;SDS011;62078;49.366;8.172;2023-01-10T05:49:37;9.77;;;2.45;;
28296;SDS011;62078;49.366;8.172;2023-01-10T05:52:03;16.60;;;2.85;;
28296;SDS011;62078;49.366;8.172;2023-01-10T05:54:29;10.55;;;2.33;;
28296;SDS011;62078;49.366;8.172;2023-01-10T05:56:55;8.93;;;2.60;;
28296;SDS011;62078;49.366;8.172;2023-01-10T05:59:20;9.40;;;2.47;;
28296;SDS011;62078;49.366;8.172;2023-01-10T06:01:46;9.25;;;2.00;;
28296;SDS011;62078;49.366;8.172;2023-01-10T06:04:12;11.15;;;2.10;;
28296;SDS011;62078;49.366;8.172;2023-01-10T06:06:38;15.20;;;2.15;;
28296;SDS011;62078;49.366;8.172;2023-01-10T06:09:04;6.38;;;1.90;;
28296;SDS011;62078;49.366;8.172;2023-01-10T06:11:29;11.98;;;2.22;;
28296;SDS011;62078;49.366;8.172;2023-01-10T06:13:56;6.97;;;2.35;;
28296;SDS011;62078;49.366;8.172;2023-01-10T06:16:22;8.48;;;2.30;;
28296;SDS011;62078;49.366;8.172;2023-01-10T06:18:49;11.48;;;2.95;;
28296;SDS011;62078;49.366;8.172;2023-01-10T06:21:14;11.60;;;2.22;;
28296;SDS011;62078;49.366;8.172;2023-01-10T06:23:40;9.13;;;1.90;;
28296;SDS011;62078;49.366;8.172;2023-01-10T06:26:06;5.03;;;1.83;;
28296;SDS011;62078;49.366;8.172;2023-01-10T06:28:32;9.00;;;2.03;;
28296;SDS011;62078;49.366;8.172;2023-01-10T06:30:57;5.93;;;2.15;;
28296;SDS011;62078;49.366;8.172;2023-01-10T06:33:23;8.43;;;2.15;;
28296;SDS011;62078;49.366;8.172;2023-01-10T06:35:48;7.47;;;1.75;;
28296;SDS011;62078;49.366;8.172;2023-01-10T06:38:14;6.43;;;2.58;;
28296;SDS011;62078;49.366;8.172;2023-01-10T06:40:40;4.82;;;1.70;;
28296;SDS011;62078;49.366;8.172;2023-01-10T06:43:06;8.35;;;1.73;;
28296;SDS011;62078;49.366;8.172;2023-01-10T06:45:31;6.43;;;2.22;;
28296;SDS011;62078;49.366;8.172;2023-01-10T06:47:57;7.47;;;2.05;;
28296;SDS011;62078;49.366;8.172;2023-01-10T06:50:23;8.60;;;2.28;;
28296;SDS011;62078;49.366;8.172;2023-01-10T06:52:59;8.55;;;2.10;;
28296;SDS011;62078;49.366;8.172;2023-01-10T06:55:27;13.90;;;3.78;;
28296;SDS011;62078;49.366;8.172;2023-01-10T06:57:56;10.15;;;3.00;;
28296;SDS011;62078;49.366;8.172;2023-01-10T07:00:24;9.50;;;3.13;;
28296;SDS011;62078;49.366;8.172;2023-01-10T07:02:51;10.45;;;3.25;;
28296;SDS011;62078;49.366;8.172;2023-01-10T07:05:18;13.02;;;3.80;;
28296;SDS011;62078;49.366;8.172;2023-01-10T07:07:45;9.15;;;2.80;;
28296;SDS011;62078;49.366;8.172;2023-01-10T07:10:10;7.32;;;2.70;;
28296;SDS011;62078;49.366;8.172;2023-01-10T07:12:36;10.00;;;2.75;;
28296;SDS011;62078;49.366;8.172;2023-01-10T07:15:02;5.28;;;1.92;;
28296;SDS011;62078;49.366;8.172;2023-01-10T07:17:29;8.25;;;2.70;;
28296;SDS011;62078;49.366;8.172;2023-01-10T07:19:55;8.02;;;2.90;;
28296;SDS011;62078;49.366;8.172;2023-01-10T07:22:21;8.93;;;2.58;;
28296;SDS011;62078;49.366;8.172;2023-01-10T07:24:46;8.10;;;2.03;;
28296;SDS011;62078;49.366;8.172;2023-01-10T07:27:12;6.57;;;2.00;;
28296;SDS011;62078;49.366;8.172;2023-01-10T07:29:37;6.55;;;2.10;;
28296;SDS011;62078;49.366;8.172;2023-01-10T07:32:04;9.90;;;3.30;;
28296;SDS011;62078;49.366;8.172;2023-01-10T07:34:29;8.75;;;2.70;;
28296;SDS011;62078;49.366;8.172;2023-01-10T07:36:55;9.20;;;3.28;;
28296;SDS011;62078;49.366;8.172;2023-01-10T07:39:21;8.40;;;3.13;;
28296;SDS011;62078;49.366;8.172;2023-01-10T07:41:47;11.55;;;3.25;;
28296;SDS011;62078;49.366;8.172;2023-01-10T07:44:13;9.23;;;2.55;;
28296;SDS011;62078;49.366;8.172;2023-01-10T07:46:39;6.70;;;1.98;;
28296;SDS011;62078;49.366;8.172;2023-01-10T07:49:05;10.77;;;2.72;;
28296;SDS011;62078;49.366;8.172;2023-01-10T07:51:30;9.30;;;2.40;;
28296;SDS011;62078;49.366;8.172;2023-01-10T07:53:56;5.78;;;2.10;;
28296;SDS011;62078;49.366;8.172;2023-01-10T07:56:22;5.95;;;2.22;;
28296;SDS011;62078;49.366;8.172;2023-01-10T07:58:48;8.57;;;2.20;;
28296;SDS011;62078;49.366;8.172;2023-01-10T08:01:14;6.30;;;2.22;;
28296;SDS011;62078;49.366;8.172;2023-01-10T08:03:40;8.30;;;2.45;;
28296;SDS011;62078;49.366;8.172;2023-01-10T08:06:06;7.72;;;2.22;;
28296;SDS011;62078;49.366;8.172;2023-01-10T08:08:36;8.75;;;2.30;;
28296;SDS011;62078;49.366;8.172;2023-01-10T08:11:02;5.72;;;2.13;;
28296;SDS011;62078;49.366;8.172;2023-01-10T08:13:29;6.07;;;2.17;;
28296;SDS011;62078;49.366;8.172;2023-01-10T08:15:55;5.03;;;1.75;;
28296;SDS011;62078;49.366;8.172;2023-01-10T08:18:22;4.97;;;1.95;;
28296;SDS011;62078;49.366;8.172;2023-01-10T08:20:51;6.75;;;2.42;;
28296;SDS011;62078;49.366;8.172;2023-01-10T08:23:18;5.80;;;2.00;;
28296;SDS011;62078;49.366;8.172;2023-01-10T08:25:44;7.72;;;2.42;;
28296;SDS011;62078;49.366;8.172;2023-01-10T08:28:11;8.23;;;2.30;;
28296;SDS011;62078;49.366;8.172;2023-01-10T08:30:37;6.18;;;2.05;;
28296;SDS011;62078;49.366;8.172;2023-01-10T08:33:03;7.50;;;2.47;;
28296;SDS011;62078;49.366;8.172;2023-01-10T08:35:35;7.70;;;2.08;;
28296;SDS011;62078;49.366;8.172;2023-01-10T08:38:02;8.23;;;2.22;;
28296;SDS011;62078;49.366;8.172;2023-01-10T08:40:27;6.95;;;2.20;;
28296;SDS011;62078;49.366;8.172;2023-01-10T08:43:00;5.10;;;2.00;;
28296;SDS011;62078;49.366;8.172;2023-01-10T08:45:28;7.67;;;2.10;;
28296;SDS011;62078;49.366;8.172;2023-01-10T08:47:54;5.40;;;2.05;;
28296;SDS011;62078;49.366;8.172;2023-01-10T08:50:20;4.65;;;1.90;;
28296;SDS011;62078;49.366;8.172;2023-01-10T08:52:46;5.50;;;1.80;;
28296;SDS011;62078;49.366;8.172;2023-01-10T08:55:11;6.03;;;2.20;;
28296;SDS011;62078;49.366;8.172;2023-01-10T08:57:37;6.30;;;2.15;;
28296;SDS011;62078;49.366;8.172;2023-01-10T09:00:03;7.50;;;2.38;;
28296;SDS011;62078;49.366;8.172;2023-01-10T09:02:30;6.50;;;2.40;;
28296;SDS011;62078;49.366;8.172;2023-01-10T09:04:55;5.80;;;2.33;;
28296;SDS011;62078;49.366;8.172;2023-01-10T09:07:21;6.65;;;2.40;;
28296;SDS011;62078;49.366;8.172;2023-01-10T09:09:47;5.72;;;1.95;;
28296;SDS011;62078;49.366;8.172;2023-01-10T09:12:13;7.88;;;2.22;;
28296;SDS011;62078;49.366;8.172;2023-01-10T09:14:57;4.95;;;1.80;;
28296;SDS011;62078;49.366;8.172;2023-01-10T09:17:23;6.15;;;2.33;;
28296;SDS011;62078;49.366;8.172;2023-01-10T09:19:48;6.18;;;1.95;;
28296;SDS011;62078;49.366;8.172;2023-01-10T09:22:14;8.43;;;2.28;;
28296;SDS011;62078;49.366;8.172;2023-01-10T09:24:40;5.53;;;2.08;;
28296;SDS011;62078;49.366;8.172;2023-01-10T09:27:08;6.15;;;2.05;;
28296;SDS011;62078;49.366;8.172;2023-01-10T09:29:34;5.95;;;1.90;;
28296;SDS011;62078;49.366;8.172;2023-01-10T09:31:59;6.55;;;1.83;;
28296;SDS011;62078;49.366;8.172;2023-01-10T09:34:25;7.15;;;1.83;;
28296;SDS011;62078;49.366;8.172;2023-01-10T09:36:52;5.93;;;2.05;;
28296;SDS011;62078;49.366;8.172;2023-01-10T09:39:18;5.30;;;1.90;;
28296;SDS011;62078;49.366;8.172;2023-01-10T09:44:24;5.35;;;1.90;;
28296;SDS011;62078;49.366;8.172;2023-01-10T09:52:37;5.00;;;1.80;;
28296;SDS011;62078;49.366;8.172;2023-01-10T09:55:22;5.80;;;1.92;;
28296;SDS011;62078;49.366;8.172;2023-01-10T09:58:00;6.65;;;2.30;;
28296;SDS011;62078;49.366;8.172;2023-01-10T10:00:48;5.75;;;1.95;;
28296;SDS011;62078;49.366;8.172;2023-01-10T10:03:31;5.38;;;1.60;;
28296;SDS011;62078;49.366;8.172;2023-01-10T10:06:17;4.85;;;1.88;;
28296;SDS011;62078;49.366;8.172;2023-01-10T10:08:46;5.18;;;1.75;;
28296;SDS011;62078;49.366;8.172;2023-01-10T10:14:05;6.47;;;1.73;;
28296;SDS011;62078;49.366;8.172;2023-01-10T10:23:02;4.18;;;1.77;;
28296;SDS011;62078;49.366;8.172;2023-01-10T10:26:25;5.05;;;1.77;;
28296;SDS011;62078;49.366;8.172;2023-01-10T10:28:46;5.20;;;2.03;;
28296;SDS011;62078;49.366;8.172;2023-01-10T10:39:47;6.00;;;1.83;;
28296;SDS011;62078;49.366;8.172;2023-01-10T10:42:22;5.93;;;1.98;;
28296;SDS011;62078;49.366;8.172;2023-01-10T10:44:56;4.43;;;1.55;;
28296;SDS011;62078;49.366;8.172;2023-01-10T10:47:25;4.43;;;1.60;;
28296;SDS011;62078;49.366;8.172;2023-01-10T10:52:39;5.63;;;1.90;;
28296;SDS011;62078;49.366;8.172;2023-01-10T10:55:05;4.97;;;1.52;;
28296;SDS011;62078;49.366;8.172;2023-01-10T10:57:37;7.00;;;1.88;;
28296;SDS011;62078;49.366;8.172;2023-01-10T11:00:04;5.47;;;1.80;;
28296;SDS011;62078;49.366;8.172;2023-01-10T11:02:52;6.13;;;1.95;;
28296;SDS011;62078;49.366;8.172;2023-01-10T11:05:34;6.10;;;1.52;;
28296;SDS011;62078;49.366;8.172;2023-01-10T11:08:03;4.90;;;1.70;;
28296;SDS011;62078;49.366;8.172;2023-01-10T11:10:37;4.93;;;1.67;;
28296;SDS011;62078;49.366;8.172;2023-01-10T11:15:40;4.20;;;1.65;;
28296;SDS011;62078;49.366;8.172;2023-01-10T11:18:15;5.18;;;1.77;;
28296;SDS011;62078;49.366;8.172;2023-01-10T11:24:12;5.90;;;2.15;;
28296;SDS011;62078;49.366;8.172;2023-01-10T11:26:21;6.05;;;2.10;;
28296;SDS011;62078;49.366;8.172;2023-01-10T11:31:57;5.05;;;1.60;;
28296;SDS011;62078;49.366;8.172;2023-01-10T11:34:32;5.55;;;1.75;;
28296;SDS011;62078;49.366;8.172;2023-01-10T11:37:02;4.45;;;2.00;;
28296;SDS011;62078;49.366;8.172;2023-01-10T11:39:30;5.97;;;1.88;;
28296;SDS011;62078;49.366;8.172;2023-01-10T11:41:57;4.05;;;1.35;;
28296;SDS011;62078;49.366;8.172;2023-01-10T11:44:53;6.55;;;1.90;;
28296;SDS011;62078;49.366;8.172;2023-01-10T11:47:19;6.70;;;2.45;;
28296;SDS011;62078;49.366;8.172;2023-01-10T11:49:46;4.93;;;1.67;;
28296;SDS011;62078;49.366;8.172;2023-01-10T11:54:50;6.80;;;1.73;;
28296;SDS011;62078;49.366;8.172;2023-01-10T11:57:20;5.90;;;2.10;;
28296;SDS011;62078;49.366;8.172;2023-01-10T11:59:49;5.72;;;1.88;;
28296;SDS011;62078;49.366;8.172;2023-01-10T12:04:58;5.07;;;1.70;;
28296;SDS011;62078;49.366;8.172;2023-01-10T12:07:26;5.13;;;1.98;;
28296;SDS011;62078;49.366;8.172;2023-01-10T12:09:56;6.57;;;2.10;;
28296;SDS011;62078;49.366;8.172;2023-01-10T12:14:57;4.65;;;1.48;;
28296;SDS011;62078;49.366;8.172;2023-01-10T12:20:11;8.32;;;2.53;;
28296;SDS011;62078;49.366;8.172;2023-01-10T12:22:40;4.78;;;1.75;;
28296;SDS011;62078;49.366;8.172;2023-01-10T12:25:27;6.78;;;2.28;;
28296;SDS011;62078;49.366;8.172;2023-01-10T12:27:59;6.03;;;1.80;;
28296;SDS011;62078;49.366;8.172;2023-01-10T12:33:13;6.63;;;2.15;;
28296;SDS011;62078;49.366;8.172;2023-01-10T12:35:47;5.60;;;2.08;;
28296;SDS011;62078;49.366;8.172;2023-01-10T12:38:29;7.43;;;2.10;;
28296;SDS011;62078;49.366;8.172;2023-01-10T12:41:26;4.82;;;1.67;;
28296;SDS011;62078;49.366;8.172;2023-01-10T12:44:23;5.20;;;1.60;;
28296;SDS011;62078;49.366;8.172;2023-01-10T12:52:23;6.53;;;1.58;;
28296;SDS011;62078;49.366;8.172;2023-01-10T12:54:57;5.22;;;1.60;;
28296;SDS011;62078;49.366;8.172;2023-01-10T12:57:28;5.93;;;1.63;;
28296;SDS011;62078;49.366;8.172;2023-01-10T13:00:05;5.93;;;1.92;;
28296;SDS011;62078;49.366;8.172;2023-01-10T13:02:39;5.00;;;2.40;;
28296;SDS011;62078;49.366;8.172;2023-01-10T13:05:18;6.38;;;1.90;;
28296;SDS011;62078;49.366;8.172;2023-01-10T13:07:49;8.18;;;2.15;;
28296;SDS011;62078;49.366;8.172;2023-01-10T13:10:22;4.95;;;1.90;;
28296;SDS011;62078;49.366;8.172;2023-01-10T13:12:58;5.72;;;1.85;;
28296;SDS011;62078;49.366;8.172;2023-01-10T13:15:31;4.80;;;1.80;;
28296;SDS011;62078;49.366;8.172;2023-01-10T13:18:04;7.22;;;2.17;;
28296;SDS011;62078;49.366;8.172;2023-01-10T13:20:42;8.23;;;2.05;;
28296;SDS011;62078;49.366;8.172;2023-01-10T13:23:13;5.38;;;1.65;;
28296;SDS011;62078;49.366;8.172;2023-01-10T13:25:58;5.40;;;1.60;;
28296;SDS011;62078;49.366;8.172;2023-01-10T13:28:26;8.52;;;1.75;;
28296;SDS011;62078;49.366;8.172;2023-01-10T13:30:55;12.20;;;2.65;;
28296;SDS011;62078;49.366;8.172;2023-01-10T13:33:29;6.95;;;2.25;;
28296;SDS011;62078;49.366;8.172;2023-01-10T13:36:07;15.00;;;2.08;;
28296;SDS011;62078;49.366;8.172;2023-01-10T13:38:44;17.77;;;2.28;;
28296;SDS011;62078;49.366;8.172;2023-01-10T13:41:14;9.73;;;2.20;;
28296;SDS011;62078;49.366;8.172;2023-01-10T13:44:06;13.65;;;2.63;;
28296;SDS011;62078;49.366;8.172;2023-01-10T13:46:34;12.52;;;2.40;;
28296;SDS011;62078;49.366;8.172;2023-01-10T13:51:28;16.20;;;2.20;;
28296;SDS011;62078;49.366;8.172;2023-01-10T13:56:30;16.25;;;2.85;;
28296;SDS011;62078;49.366;8.172;2023-01-10T13:58:58;7.70;;;2.35;;
28296;SDS011;62078;49.366;8.172;2023-01-10T14:02:09;13.80;;;2.17;;
28296;SDS011;62078;49.366;8.172;2023-01-10T14:07:49;11.52;;;2.13;;
28296;SDS011;62078;49.366;8.172;2023-01-10T14:12:55;7.53;;;2.08;;
28296;SDS011;62078;49.366;8.172;2023-01-10T14:15:51;8.10;;;1.92;;
28296;SDS011;62078;49.366;8.172;2023-01-10T14:18:20;11.27;;;2.00;;
28296;SDS011;62078;49.366;8.172;2023-01-10T14:21:04;7.75;;;1.73;;
28296;SDS011;62078;49.366;8.172;2023-01-10T14:23:42;7.88;;;1.92;;
28296;SDS011;62078;49.366;8.172;2023-01-10T14:26:32;7.88;;;1.95;;
28296;SDS011;62078;49.366;8.172;2023-01-10T14:29:01;11.30;;;2.38;;
28296;SDS011;62078;49.366;8.172;2023-01-10T14:31:36;5.13;;;1.75;;
28296;SDS011;62078;49.366;8.172;2023-01-10T14:34:08;6.55;;;1.90;;
28296;SDS011;62078;49.366;8.172;2023-01-10T14:36:56;4.13;;;1.48;;
28296;SDS011;62078;49.366;8.172;2023-01-10T14:39:25;7.72;;;2.20;;
28296;SDS011;62078;49.366;8.172;2023-01-10T14:41:53;4.95;;;1.77;;
28296;SDS011;62078;49.366;8.172;2023-01-10T14:44:30;7.93;;;1.70;;
28296;SDS011;62078;49.366;8.172;2023-01-10T14:47:01;12.02;;;1.95;;
28296;SDS011;62078;49.366;8.172;2023-01-10T14:49:35;9.07;;;2.38;;
28296;SDS011;62078;49.366;8.172;2023-01-10T14:54:43;8.10;;;2.28;;
28296;SDS011;62078;49.366;8.172;2023-01-10T14:57:17;5.85;;;1.95;;
28296;SDS011;62078;49.366;8.172;2023-01-10T14:59:45;6.78;;;1.83;;
28296;SDS011;62078;49.366;8.172;2023-01-10T15:02:13;10.30;;;1.83;;
28296;SDS011;62078;49.366;8.172;2023-01-10T15:04:54;4.63;;;1.60;;
28296;SDS011;62078;49.366;8.172;2023-01-10T15:07:25;10.57;;;2.10;;
28296;SDS011;62078;49.366;8.172;2023-01-10T15:09:52;9.60;;;1.67;;
28296;SDS011;62078;49.366;8.172;2023-01-10T15:12:23;7.43;;;1.90;;
28296;SDS011;62078;49.366;8.172;2023-01-10T15:15:02;6.13;;;2.22;;
28296;SDS011;62078;49.366;8.172;2023-01-10T15:17:30;5.90;;;1.58;;
28296;SDS011;62078;49.366;8.172;2023-01-10T15:19:58;5.70;;;1.60;;
28296;SDS011;62078;49.366;8.172;2023-01-10T15:22:28;7.78;;;1.75;;
28296;SDS011;62078;49.366;8.172;2023-01-10T15:27:27;5.18;;;1.65;;
28296;SDS011;62078;49.366;8.172;2023-01-10T15:29:54;4.88;;;1.73;;
28296;SDS011;62078;49.366;8.172;2023-01-10T18:54:11;10.00;;;5.25;;
28296;SDS011;62078;49.366;8.172;2023-01-10T18:56:36;13.63;;;6.13;;
28296;SDS011;62078;49.366;8.172;2023-01-10T18:59:02;11.52;;;5.75;;
28296;SDS011;62078;49.366;8.172;2023-01-10T19:01:28;13.98;;;6.32;;
28296;SDS011;62078;49.366;8.172;2023-01-10T19:03:54;17.33;;;6.03;;
28296;SDS011;62078;49.366;8.172;2023-01-10T19:06:21;12.82;;;6.63;;
28296;SDS011;62078;49.366;8.172;2023-01-10T19:08:47;11.00;;;5.85;;
28296;SDS011;62078;49.366;8.172;2023-01-10T19:11:16;10.50;;;5.88;;
28296;SDS011;62078;49.366;8.172;2023-01-10T19:13:47;9.55;;;5.53;;
28296;SDS011;62078;49.366;8.172;2023-01-10T19:16:17;10.07;;;5.97;;
28296;SDS011;62078;49.366;8.172;2023-01-10T19:18:48;9.20;;;5.57;;
28296;SDS011;62078;49.366;8.172;2023-01-10T19:21:19;9.38;;;5.20;;
28296;SDS011;62078;49.366;8.172;2023-01-10T19:23:47;8.57;;;5.00;;
28296;SDS011;62078;49.366;8.172;2023-01-10T19:26:16;10.52;;;5.72;;
28296;SDS011;62078;49.366;8.172;2023-01-10T19:28:43;10.07;;;5.38;;
28296;SDS011;62078;49.366;8.172;2023-01-10T19:31:13;9.90;;;5.53;;
28296;SDS011;62078;49.366;8.172;2023-01-10T19:33:40;11.10;;;5.70;;
28296;SDS011;62078;49.366;8.172;2023-01-10T19:36:08;9.00;;;5.20;;
28296;SDS011;62078;49.366;8.172;2023-01-10T19:38:34;8.98;;;5.50;;
28296;SDS011;62078;49.366;8.172;2023-01-10T19:41:00;11.10;;;5.53;;
28296;SDS011;62078;49.366;8.172;2023-01-10T19:43:27;10.68;;;5.88;;
28296;SDS011;62078;49.366;8.172;2023-01-10T19:45:53;7.40;;;5.43;;
28296;SDS011;62078;49.366;8.172;2023-01-10T19:48:20;9.80;;;5.50;;
28296;SDS011;62078;49.366;8.172;2023-01-10T19:50:47;9.25;;;5.32;;
28296;SDS011;62078;49.366;8.172;2023-01-10T19:53:13;8.80;;;5.47;;
28296;SDS011;62078;49.366;8.172;2023-01-10T19:55:39;10.93;;;5.32;;
28296;SDS011;62078;49.366;8.172;2023-01-10T19:58:05;11.35;;;5.57;;
28296;SDS011;62078;49.366;8.172;2023-01-10T20:00:31;9.23;;;5.10;;
28296;SDS011;62078;49.366;8.172;2023-01-10T20:02:58;9.82;;;4.85;;
28296;SDS011;62078;49.366;8.172;2023-01-10T20:05:24;9.00;;;5.00;;
28296;SDS011;62078;49.366;8.172;2023-01-10T20:07:51;6.53;;;4.40;;